createdAt,value
2022-08-24T00:01:36.450Z,24.40
2022-08-24T00:04:08.305Z,21.80
2022-08-24T00:06:42.311Z,21.20
2022-08-24T00:09:14.014Z,23.80
2022-08-24T00:11:46.303Z,28.50
2022-08-24T00:14:18.093Z,26.60
2022-08-24T00:16:49.963Z,26.70
2022-08-24T00:19:21.812Z,25.50
2022-08-24T00:21:53.561Z,22.60
2022-08-24T00:24:25.382Z,25.60
2022-08-24T00:26:57.165Z,22.10
2022-08-24T00:29:28.883Z,22.70
2022-08-24T00:32:00.874Z,28.20
2022-08-24T00:34:33.098Z,21.50
2022-08-24T00:37:05.502Z,19.60
2022-08-24T00:39:37.143Z,21.20
2022-08-24T00:42:09.952Z,18.40
2022-08-24T00:44:41.937Z,20.60
2022-08-24T00:47:19.047Z,17.00
2022-08-24T00:49:57.155Z,19.60
2022-08-24T00:52:33.849Z,21.70
2022-08-24T00:55:11.680Z,18.30
2022-08-24T00:57:47.839Z,20.00
2022-08-24T01:00:24.473Z,19.00
2022-08-24T01:03:01.576Z,19.40
2022-08-24T01:05:33.728Z,22.50
2022-08-24T01:08:07.668Z,28.70
2022-08-24T01:10:42.526Z,21.40
2022-08-24T01:13:15.814Z,19.30
2022-08-24T01:15:51.179Z,23.20
2022-08-24T01:18:44.020Z,20.60
2022-08-24T01:21:19.673Z,23.70
2022-08-24T01:23:54.580Z,21.60
2022-08-24T01:26:29.891Z,28.70
2022-08-24T01:29:07.197Z,20.70
2022-08-24T01:31:39.885Z,20.40
2022-08-24T01:34:13.039Z,27.20
2022-08-24T01:36:47.948Z,24.70
2022-08-24T01:39:23.483Z,32.90
2022-08-24T01:41:55.865Z,36.40
2022-08-24T01:46:59.594Z,34.80
2022-08-24T01:49:34.646Z,33.30
2022-08-24T01:52:07.997Z,35.90
2022-08-24T01:54:43.510Z,35.50
2022-08-24T01:57:17.763Z,31.70
2022-08-24T01:59:49.915Z,34.80
2022-08-24T02:02:26.363Z,39.40
2022-08-24T02:04:58.189Z,38.40
2022-08-24T02:10:01.554Z,35.00
2022-08-24T02:12:36.440Z,37.80
2022-08-24T02:15:11.509Z,38.00
2022-08-24T02:17:43.353Z,37.70
2022-08-24T02:20:16.041Z,36.50
2022-08-24T02:22:47.750Z,36.90
2022-08-24T02:25:21.453Z,37.70
2022-08-24T02:27:53.457Z,32.80
2022-08-24T02:30:25.436Z,40.00
2022-08-24T02:32:57.416Z,33.60
2022-08-24T02:35:31.465Z,32.90
2022-08-24T02:38:03.606Z,32.90
2022-08-24T02:40:35.488Z,31.00
2022-08-24T02:43:07.623Z,33.60
2022-08-24T02:45:42.566Z,33.90
2022-08-24T02:48:15.316Z,36.20
2022-08-24T02:50:50.994Z,38.50
2022-08-24T02:53:24.612Z,30.80
2022-08-24T02:55:56.300Z,29.50
2022-08-24T02:58:28.037Z,36.80
2022-08-24T03:00:59.752Z,27.10
2022-08-24T03:03:33.645Z,30.40
2022-08-24T03:06:06.045Z,28.50
2022-08-24T03:08:39.821Z,32.50
2022-08-24T03:11:11.980Z,26.90
2022-08-24T03:13:43.741Z,24.30
2022-08-24T03:16:16.283Z,20.70
2022-08-24T03:18:48.790Z,23.30
2022-08-24T03:21:21.018Z,22.40
2022-08-24T03:23:52.955Z,27.00
2022-08-24T03:28:57.045Z,24.10
2022-08-24T03:31:30.817Z,29.10
2022-08-24T03:34:03.150Z,27.00
2022-08-24T03:36:34.880Z,32.40
2022-08-24T03:39:06.877Z,31.60
2022-08-24T03:41:38.706Z,25.40
2022-08-24T03:44:10.827Z,32.00
2022-08-24T03:46:42.715Z,33.30
2022-08-24T03:49:15.866Z,24.20
2022-08-24T03:51:49.922Z,25.70
2022-08-24T03:54:23.400Z,26.20
2022-08-24T03:56:56.460Z,24.50
2022-08-24T03:59:29.587Z,24.60
2022-08-24T04:02:02.722Z,23.20
2022-08-24T04:04:34.516Z,24.20
2022-08-24T04:09:37.681Z,26.40
2022-08-24T04:12:10.102Z,25.00
2022-08-24T04:14:42.508Z,25.40
2022-08-24T04:17:18.841Z,28.00
2022-08-24T04:19:58.429Z,25.80
2022-08-24T04:22:35.428Z,24.60
2022-08-24T04:25:11.300Z,29.90
2022-08-24T04:27:43.964Z,26.90
2022-08-24T04:30:16.836Z,27.10
2022-08-24T04:33:04.817Z,29.90
2022-08-24T04:35:40.472Z,28.10
2022-08-24T04:38:12.629Z,31.70
2022-08-24T04:40:49.015Z,29.90
2022-08-24T04:43:21.773Z,35.40
2022-08-24T04:45:53.659Z,30.20
2022-08-24T04:48:25.825Z,29.80
2022-08-24T04:51:02.884Z,32.90
2022-08-24T04:53:35.202Z,36.90
2022-08-24T04:56:11.643Z,38.70
2022-08-24T04:58:44.756Z,39.10
2022-08-24T05:01:19.721Z,40.80
2022-08-24T05:03:55.150Z,37.90
2022-08-24T05:06:29.437Z,41.10
2022-08-24T05:09:02.388Z,42.50
2022-08-24T05:11:37.159Z,41.90
2022-08-24T05:14:11.228Z,47.80
2022-08-24T05:16:45.845Z,39.70
2022-08-24T05:19:25.827Z,42.00
2022-08-24T05:21:57.842Z,36.30
2022-08-24T05:24:30.132Z,37.10
2022-08-24T05:27:02.088Z,38.40
2022-08-24T05:29:34.802Z,36.10
2022-08-24T05:32:07.357Z,37.90
2022-08-24T05:34:39.811Z,36.80
2022-08-24T05:37:11.768Z,35.90
2022-08-24T05:39:56.032Z,35.70
2022-08-24T05:42:27.882Z,39.20
2022-08-24T05:44:59.936Z,39.60
2022-08-24T05:47:31.842Z,30.10
2022-08-24T05:50:10.260Z,33.20
2022-08-24T05:52:42.067Z,30.00
2022-08-24T05:55:14.632Z,26.90
2022-08-24T05:57:46.678Z,32.00
2022-08-24T06:00:25.799Z,26.60
2022-08-24T06:02:57.776Z,25.80
2022-08-24T06:05:29.797Z,35.40
2022-08-24T06:08:02.132Z,30.60
2022-08-24T06:10:40.303Z,29.40
2022-08-24T06:13:12.929Z,27.80
2022-08-24T06:15:59.376Z,27.40
2022-08-24T06:18:37.781Z,35.10
2022-08-24T06:21:13.011Z,37.70
2022-08-24T06:23:48.050Z,35.60
2022-08-24T06:26:38.342Z,36.00
2022-08-24T06:29:10.743Z,31.00
2022-08-24T06:31:54.638Z,33.70
2022-08-24T06:34:28.745Z,30.50
2022-08-24T06:37:01.998Z,33.60
2022-08-24T06:39:33.760Z,29.00
2022-08-24T06:42:08.363Z,29.90
2022-08-24T06:44:40.068Z,27.80
2022-08-24T06:47:17.985Z,28.10
2022-08-24T06:49:49.880Z,27.60
2022-08-24T06:52:21.769Z,23.90
2022-08-24T06:54:54.038Z,23.00
2022-08-24T06:57:25.850Z,24.20
2022-08-24T06:59:58.414Z,22.20
2022-08-24T07:02:30.526Z,24.20
2022-08-24T07:05:02.272Z,28.30
2022-08-24T07:07:52.463Z,19.00
2022-08-24T07:10:25.692Z,17.50
2022-08-24T07:13:00.825Z,22.50
2022-08-24T07:15:32.683Z,17.60
2022-08-24T07:18:14.878Z,25.10
2022-08-24T07:20:50.422Z,21.90
2022-08-24T07:23:56.028Z,16.40
2022-08-24T07:26:31.402Z,20.70
2022-08-24T07:29:06.283Z,21.00
2022-08-24T07:31:46.091Z,21.40
2022-08-24T07:34:24.629Z,16.70
2022-08-24T07:36:56.668Z,18.90
2022-08-24T07:39:28.629Z,17.10
2022-08-24T07:42:25.312Z,20.70
2022-08-24T07:44:54.201Z,23.60
2022-08-24T07:47:49.518Z,23.00
2022-08-24T07:50:35.484Z,15.60
2022-08-24T07:53:09.772Z,16.30
2022-08-24T07:55:46.157Z,15.70
2022-08-24T07:58:18.320Z,16.20
2022-08-24T08:00:50.616Z,20.80
2022-08-24T08:05:59.138Z,18.70
2022-08-24T08:08:33.036Z,15.70
2022-08-24T08:11:07.167Z,15.80
2022-08-24T08:16:16.691Z,20.80
2022-08-24T08:18:56.323Z,20.80
2022-08-24T08:21:55.367Z,18.50
2022-08-24T08:24:27.307Z,16.30
2022-08-24T08:27:00.309Z,18.10
2022-08-24T08:29:39.531Z,16.80
2022-08-24T08:32:14.710Z,15.00
2022-08-24T08:34:47.594Z,29.10
2022-08-24T08:39:50.918Z,17.80
2022-08-24T08:42:39.153Z,22.60
2022-08-24T08:45:45.831Z,19.90
2022-08-24T08:49:19.562Z,18.50
2022-08-24T08:52:07.820Z,15.50
2022-08-24T08:54:50.215Z,19.80
2022-08-24T08:57:40.685Z,19.40
2022-08-24T09:00:18.240Z,16.20
2022-08-24T09:03:11.870Z,19.40
2022-08-24T09:06:07.192Z,28.20
2022-08-24T09:08:54.260Z,15.70
2022-08-24T09:11:37.361Z,19.40
2022-08-24T09:14:48.615Z,16.40
2022-08-24T09:17:34.869Z,22.00
2022-08-24T09:20:24.201Z,19.50
2022-08-24T09:23:09.150Z,16.20
2022-08-24T09:25:51.412Z,20.60
2022-08-24T09:28:41.434Z,15.00
2022-08-24T09:31:43.611Z,21.60
2022-08-24T09:34:28.751Z,17.00
2022-08-24T09:39:57.280Z,21.20
2022-08-24T09:43:01.025Z,19.00
2022-08-24T09:46:05.952Z,19.90
2022-08-24T09:48:56.962Z,18.70
2022-08-24T09:51:54.695Z,15.70
2022-08-24T09:54:54.436Z,21.40
2022-08-24T10:00:40.135Z,19.60
2022-08-24T10:03:41.992Z,16.40
2022-08-24T10:06:38.248Z,18.20
2022-08-24T10:09:40.623Z,17.40
2022-08-24T10:12:24.053Z,18.30
2022-08-24T10:15:01.095Z,17.70
2022-08-24T10:17:48.349Z,16.60
2022-08-24T10:20:25.205Z,16.70
2022-08-24T10:23:37.245Z,15.90
2022-08-24T10:26:17.383Z,19.00
2022-08-24T10:29:09.466Z,16.00
2022-08-24T10:31:52.952Z,15.60
2022-08-24T10:34:43.525Z,9.90
2022-08-24T10:37:31.485Z,12.00
2022-08-24T10:40:36.668Z,18.20
2022-08-24T10:43:36.958Z,15.70
2022-08-24T10:46:34.274Z,14.10
2022-08-24T10:49:30.544Z,19.60
2022-08-24T10:52:21.492Z,13.10
2022-08-24T10:54:53.807Z,16.30
2022-08-24T10:57:34.170Z,15.80
2022-08-24T11:00:11.703Z,18.70
2022-08-24T11:03:05.504Z,14.30
2022-08-24T11:05:46.670Z,11.80
2022-08-24T11:08:25.438Z,20.10
2022-08-24T11:11:10.654Z,11.90
2022-08-24T11:13:53.950Z,13.60
2022-08-24T11:16:32.890Z,14.30
2022-08-24T11:19:09.635Z,16.10
2022-08-24T11:21:49.186Z,13.30
2022-08-24T11:24:40.340Z,18.50
2022-08-24T11:27:25.812Z,18.30
2022-08-24T11:30:02.976Z,17.70
2022-08-24T11:32:41.202Z,17.40
2022-08-24T11:35:25.099Z,18.70
2022-08-24T11:38:04.246Z,18.90
2022-08-24T11:40:43.315Z,12.80
2022-08-24T11:43:30.153Z,12.70
2022-08-24T11:46:15.411Z,19.60
2022-08-24T11:49:01.599Z,17.90
2022-08-24T11:51:42.493Z,20.00
2022-08-24T11:54:25.178Z,13.10
2022-08-24T11:57:09.197Z,17.90
2022-08-24T11:59:51.942Z,16.40
2022-08-24T12:02:32.314Z,22.30
2022-08-24T12:05:14.267Z,16.50
2022-08-24T12:07:56.789Z,25.10
2022-08-24T12:10:39.779Z,18.40
2022-08-24T12:13:21.774Z,15.70
2022-08-24T12:16:02.386Z,13.30
2022-08-24T12:18:47.374Z,17.90
2022-08-24T12:21:22.918Z,16.10
2022-08-24T12:24:00.073Z,26.20
2022-08-24T12:26:38.178Z,17.50
2022-08-24T12:29:14.027Z,12.30
2022-08-24T12:31:51.345Z,14.10
2022-08-24T12:34:29.220Z,18.40
2022-08-24T12:37:10.685Z,20.30
2022-08-24T12:39:55.999Z,15.80
2022-08-24T12:42:35.502Z,15.00
2022-08-24T12:45:11.442Z,16.50
2022-08-24T12:47:50.304Z,18.80
2022-08-24T12:50:30.215Z,18.70
2022-08-24T12:53:22.451Z,19.60
2022-08-24T12:56:08.324Z,23.00
2022-08-24T12:58:56.177Z,20.70
2022-08-24T13:01:33.588Z,21.60
2022-08-24T13:04:13.558Z,18.30
2022-08-24T13:06:53.373Z,14.20
2022-08-24T13:09:35.722Z,16.90
2022-08-24T13:12:45.052Z,16.50
2022-08-24T13:15:47.928Z,18.80
2022-08-24T13:21:57.197Z,25.30
2022-08-24T13:25:02.013Z,20.20
2022-08-24T13:28:12.762Z,17.30
2022-08-24T13:31:12.521Z,14.50
2022-08-24T13:33:48.625Z,15.80
2022-08-24T13:36:57.105Z,21.10
2022-08-24T13:39:52.656Z,22.40
2022-08-24T13:42:41.356Z,13.70
2022-08-24T13:45:24.384Z,17.10
2022-08-24T13:48:09.324Z,17.90
2022-08-24T13:50:59.776Z,20.30
2022-08-24T13:53:54.568Z,19.20
2022-08-24T13:56:45.637Z,21.50
2022-08-24T13:59:23.381Z,12.40
2022-08-24T14:02:12.326Z,17.80
2022-08-24T14:04:56.091Z,18.60
2022-08-24T14:07:34.266Z,22.50
2022-08-24T14:10:15.226Z,18.60
2022-08-24T14:13:01.075Z,21.10
2022-08-24T14:15:48.932Z,22.30
2022-08-24T14:18:32.351Z,12.70
2022-08-24T14:21:11.808Z,21.90
2022-08-24T14:24:00.415Z,21.00
2022-08-24T14:27:06.986Z,23.00
2022-08-24T14:29:46.705Z,19.90
2022-08-24T14:32:32.805Z,13.90
2022-08-24T14:35:26.151Z,18.50
2022-08-24T14:38:10.611Z,18.80
2022-08-24T14:41:03.710Z,17.90
2022-08-24T14:43:51.005Z,21.20
2022-08-24T14:46:33.527Z,20.70
2022-08-24T14:49:19.597Z,15.10
2022-08-24T14:52:01.928Z,17.00
2022-08-24T14:54:45.447Z,20.90
2022-08-24T14:57:32.755Z,30.80
2022-08-24T15:00:13.700Z,18.80
2022-08-24T15:03:15.840Z,19.40
2022-08-24T15:06:25.685Z,28.00
2022-08-24T15:09:06.128Z,19.40
2022-08-24T15:11:40.597Z,20.00
2022-08-24T15:14:22.809Z,18.20
2022-08-24T15:17:02.613Z,14.10
2022-08-24T15:19:44.515Z,19.80
2022-08-24T15:22:27.907Z,18.30
2022-08-24T15:25:08.382Z,22.20
2022-08-24T15:27:46.569Z,25.40
2022-08-24T15:30:25.999Z,24.90
2022-08-24T15:33:09.680Z,27.40
2022-08-24T15:35:43.947Z,21.90
2022-08-24T15:38:25.411Z,23.10
2022-08-24T15:41:08.058Z,26.10
2022-08-24T15:43:45.516Z,23.60
2022-08-24T15:46:22.844Z,22.80
2022-08-24T15:49:02.473Z,27.30
2022-08-24T15:51:45.973Z,28.50
2022-08-24T15:54:30.438Z,21.40
2022-08-24T15:57:04.331Z,25.50
2022-08-24T15:59:49.676Z,18.40
2022-08-24T16:02:35.742Z,22.80
2022-08-24T16:05:21.783Z,24.10
2022-08-24T16:08:16.338Z,20.80
2022-08-24T16:10:50.480Z,18.70
2022-08-24T16:13:30.331Z,27.20
2022-08-24T16:16:06.130Z,21.20
2022-08-24T16:18:53.740Z,24.00
2022-08-24T16:21:32.678Z,20.10
2022-08-24T16:24:12.177Z,18.10
2022-08-24T16:27:01.556Z,28.60
2022-08-24T16:29:55.999Z,26.00
2022-08-24T16:32:38.330Z,22.80
2022-08-24T16:35:25.477Z,20.10
2022-08-24T16:37:57.651Z,27.10
2022-08-24T16:40:30.548Z,19.00
2022-08-24T16:43:02.605Z,21.40
2022-08-24T16:45:36.102Z,25.40
2022-08-24T16:48:08.384Z,20.30
2022-08-24T16:50:40.382Z,25.50
2022-08-24T16:53:12.342Z,19.40
2022-08-24T16:55:44.349Z,23.30
2022-08-24T16:58:16.436Z,24.10
2022-08-24T17:00:48.138Z,19.50
2022-08-24T17:03:19.856Z,14.80
2022-08-24T17:05:51.808Z,20.80
2022-08-24T17:08:23.605Z,22.80
2022-08-24T17:10:55.631Z,26.10
2022-08-24T17:13:48.360Z,18.90
2022-08-24T17:16:20.983Z,25.50
2022-08-24T17:18:52.685Z,22.80
2022-08-24T17:21:24.406Z,23.80
2022-08-24T17:23:56.160Z,20.50
2022-08-24T17:26:28.878Z,27.40
2022-08-24T17:29:03.489Z,27.70
2022-08-24T17:31:35.756Z,18.30
2022-08-24T17:34:08.529Z,25.10
2022-08-24T17:36:41.555Z,22.20
2022-08-24T17:39:17.561Z,16.40
2022-08-24T17:41:49.984Z,19.70
2022-08-24T17:46:58.888Z,22.60
2022-08-24T17:49:33.492Z,21.50
2022-08-24T17:52:05.732Z,19.10
2022-08-24T17:54:37.695Z,24.70
2022-08-24T17:57:11.826Z,33.50
2022-08-24T17:59:44.593Z,22.60
2022-08-24T18:02:16.254Z,21.30
2022-08-24T18:04:50.305Z,21.60
2022-08-24T18:07:42.205Z,18.30
2022-08-24T18:10:18.700Z,25.60
2022-08-24T18:12:50.537Z,21.90
2022-08-24T18:15:35.457Z,20.00
2022-08-24T18:18:10.252Z,24.10
2022-08-24T18:20:42.983Z,24.00
2022-08-24T18:23:15.010Z,25.50
2022-08-24T18:25:54.181Z,26.40
2022-08-24T18:28:26.187Z,24.50
2022-08-24T18:30:58.320Z,25.70
2022-08-24T18:33:30.098Z,25.40
2022-08-24T18:36:02.186Z,30.30
2022-08-24T18:38:33.955Z,25.30
2022-08-24T18:41:06.180Z,16.60
2022-08-24T18:43:38.062Z,22.30
2022-08-24T18:46:11.056Z,32.80
2022-08-24T18:48:42.953Z,27.80
2022-08-24T18:51:17.745Z,19.80
2022-08-24T18:53:50.686Z,21.90
2022-08-24T18:56:25.060Z,29.10
2022-08-24T18:58:58.280Z,29.90
2022-08-24T19:01:32.437Z,31.60
2022-08-24T19:04:13.461Z,40.40
2022-08-24T19:06:47.272Z,29.80
2022-08-24T19:09:20.118Z,26.40
2022-08-24T19:11:53.966Z,22.10
2022-08-24T19:14:27.247Z,27.50
2022-08-24T19:16:59.613Z,22.50
2022-08-24T19:19:34.708Z,29.10
2022-08-24T19:22:10.017Z,23.20
2022-08-24T19:24:45.109Z,25.40
2022-08-24T19:27:18.108Z,22.80
2022-08-24T19:29:56.409Z,30.70
2022-08-24T19:32:33.314Z,20.60
2022-08-24T19:35:06.047Z,22.10
2022-08-24T19:37:39.112Z,24.90
2022-08-24T19:40:12.799Z,25.70
2022-08-24T19:42:45.420Z,21.90
2022-08-24T19:48:08.614Z,23.00
2022-08-24T19:50:41.792Z,25.50
2022-08-24T19:53:15.516Z,22.40
2022-08-24T19:55:50.374Z,31.00
2022-08-24T19:58:30.233Z,27.90
2022-08-24T20:01:06.125Z,22.60
2022-08-24T20:03:38.156Z,23.60
2022-08-24T20:06:10.376Z,25.30
2022-08-24T20:08:42.793Z,26.20
2022-08-24T20:11:15.130Z,32.90
2022-08-24T20:13:47.468Z,26.10
2022-08-24T20:16:24.388Z,26.30
2022-08-24T20:18:56.387Z,29.60
2022-08-24T20:21:30.116Z,25.70
2022-08-24T20:24:02.890Z,23.30
2022-08-24T20:26:41.420Z,25.20
2022-08-24T20:29:14.401Z,33.40
2022-08-24T20:31:50.677Z,28.70
2022-08-24T20:34:24.329Z,23.80
2022-08-24T20:36:56.563Z,24.40
2022-08-24T20:39:29.194Z,24.70
2022-08-24T20:42:00.934Z,26.20
2022-08-24T20:44:32.966Z,33.50
2022-08-24T20:47:04.956Z,29.80
2022-08-24T20:49:37.778Z,24.60
2022-08-24T20:52:09.863Z,26.80
2022-08-24T20:54:42.432Z,31.40
2022-08-24T20:57:18.247Z,23.90
2022-08-24T20:59:49.999Z,25.70
2022-08-24T21:02:21.879Z,23.40
2022-08-24T21:04:53.548Z,23.30
2022-08-24T21:07:25.323Z,35.00
2022-08-24T21:09:57.481Z,27.30
2022-08-24T21:12:32.585Z,23.20
2022-08-24T21:15:05.050Z,21.30
2022-08-24T21:20:09.285Z,25.80
2022-08-24T21:22:41.048Z,22.80
2022-08-24T21:25:14.575Z,22.30
2022-08-24T21:27:48.035Z,24.80
2022-08-24T21:30:22.179Z,24.00
2022-08-24T21:33:11.868Z,22.20
2022-08-24T21:35:45.397Z,22.00
2022-08-24T21:38:22.324Z,22.50
2022-08-24T21:40:54.630Z,25.40
2022-08-24T21:43:26.497Z,23.60
2022-08-24T21:45:58.644Z,21.50
2022-08-24T21:48:30.328Z,22.50
2022-08-24T21:51:02.017Z,26.80
2022-08-24T21:53:33.854Z,24.70
2022-08-24T21:56:07.411Z,26.10
2022-08-24T21:58:39.158Z,23.70
2022-08-24T22:01:11.230Z,23.70
2022-08-24T22:03:43.086Z,23.10
2022-08-24T22:06:15.111Z,22.30
2022-08-24T22:08:46.925Z,23.40
2022-08-24T22:11:24.575Z,24.50
2022-08-24T22:13:56.707Z,21.50
2022-08-24T22:19:00.034Z,28.80
2022-08-24T22:24:08.910Z,29.00
2022-08-24T22:26:41.480Z,26.70
2022-08-24T22:29:14.198Z,29.20
2022-08-24T22:34:19.729Z,26.30
2022-08-24T22:36:53.912Z,25.00
2022-08-24T22:41:56.054Z,25.40
2022-08-24T22:44:29.002Z,22.80
2022-08-24T22:47:03.468Z,27.90
2022-08-24T22:49:43.510Z,27.00
2022-08-24T22:52:16.618Z,21.30
2022-08-24T22:54:48.276Z,21.30
2022-08-24T22:57:21.035Z,26.30
2022-08-24T22:59:52.672Z,29.50
2022-08-24T23:02:24.643Z,30.20
2022-08-24T23:04:57.328Z,27.10
2022-08-24T23:07:29.221Z,31.70
2022-08-24T23:10:01.247Z,29.70
2022-08-24T23:12:33.150Z,24.40
2022-08-24T23:15:05.260Z,25.40
2022-08-24T23:17:36.941Z,26.20
2022-08-24T23:20:10.379Z,27.60
2022-08-24T23:22:43.981Z,30.70
2022-08-24T23:25:16.134Z,36.10
2022-08-24T23:27:50.043Z,29.40
2022-08-24T23:30:22.768Z,27.80
2022-08-24T23:32:54.490Z,26.40
2022-08-24T23:35:26.187Z,24.20
2022-08-24T23:37:57.894Z,21.30
2022-08-24T23:40:29.927Z,21.90
2022-08-24T23:43:01.807Z,29.60
2022-08-24T23:45:33.628Z,36.10
2022-08-24T23:48:06.276Z,24.40
2022-08-24T23:50:37.956Z,33.10
2022-08-24T23:53:09.801Z,22.90
2022-08-24T23:55:41.544Z,24.80
2022-08-24T23:58:13.555Z,31.20
